createdAt,value
2023-01-19T00:00:36.835Z,91.87
2023-01-19T00:01:36.662Z,90.83
2023-01-19T00:02:36.700Z,93.34
2023-01-19T00:03:36.636Z,93.55
2023-01-19T00:04:36.641Z,94.60
2023-01-19T00:05:36.626Z,92.82
2023-01-19T00:06:36.655Z,93.44
2023-01-19T00:07:36.607Z,92.92
2023-01-19T00:08:36.594Z,93.97
2023-01-19T00:09:36.598Z,93.76
2023-01-19T00:10:36.569Z,94.70
2023-01-19T00:11:36.563Z,94.60
2023-01-19T00:12:36.560Z,94.38
2023-01-19T00:13:36.554Z,93.97
2023-01-19T00:14:36.540Z,93.44
2023-01-19T00:15:36.513Z,94.07
2023-01-19T00:16:36.625Z,94.60
2023-01-19T00:17:36.486Z,94.38
2023-01-19T00:18:36.526Z,95.23
2023-01-19T00:19:36.486Z,94.70
2023-01-19T00:20:36.480Z,94.81
2023-01-19T00:21:36.449Z,95.43
2023-01-19T00:22:36.458Z,95.54
2023-01-19T00:23:36.432Z,94.81
2023-01-19T00:24:36.438Z,94.07
2023-01-19T00:25:36.441Z,93.65
2023-01-19T00:26:36.442Z,94.38
2023-01-19T00:27:36.384Z,95.64
2023-01-19T00:28:36.388Z,94.81
2023-01-19T00:29:36.363Z,93.55
2023-01-19T00:30:36.363Z,94.28
2023-01-19T00:31:36.361Z,93.55
2023-01-19T00:32:36.371Z,93.34
2023-01-19T00:33:36.323Z,92.71
2023-01-19T00:34:36.406Z,93.97
2023-01-19T00:35:36.310Z,93.76
2023-01-19T00:36:36.300Z,92.50
2023-01-19T00:37:36.282Z,94.07
2023-01-19T00:38:36.307Z,94.70
2023-01-19T00:39:36.261Z,94.49
2023-01-19T00:40:36.264Z,95.12
2023-01-19T00:41:36.252Z,94.07
2023-01-19T00:42:36.250Z,94.18
2023-01-19T00:43:36.228Z,94.38
2023-01-19T00:44:36.257Z,94.81
2023-01-19T00:45:36.247Z,94.18
2023-01-19T00:46:36.229Z,94.07
2023-01-19T00:47:36.189Z,93.97
2023-01-19T00:48:36.183Z,93.55
2023-01-19T00:49:36.183Z,93.55
2023-01-19T00:50:36.165Z,94.28
2023-01-19T00:51:36.191Z,95.54
2023-01-19T00:52:36.162Z,94.18
2023-01-19T00:53:36.132Z,94.91
2023-01-19T00:54:36.134Z,95.23
2023-01-19T00:55:36.104Z,94.18
2023-01-19T00:56:36.124Z,95.01
2023-01-19T00:57:36.069Z,93.65
2023-01-19T00:58:36.121Z,94.38
2023-01-19T00:59:36.055Z,92.92
2023-01-19T01:00:36.059Z,93.24
2023-01-19T01:01:44.962Z,93.65
2023-01-19T01:02:36.251Z,94.91
2023-01-19T01:03:36.214Z,95.43
2023-01-19T01:04:36.067Z,94.91
2023-01-19T01:05:36.113Z,93.44
2023-01-19T01:06:36.022Z,93.13
2023-01-19T01:07:35.985Z,93.76
2023-01-19T01:08:35.987Z,94.49
2023-01-19T01:09:35.956Z,94.28
2023-01-19T01:10:35.958Z,94.38
2023-01-19T01:11:35.939Z,93.59
2023-01-19T01:12:35.996Z,94.60
2023-01-19T01:13:35.938Z,93.80
2023-01-19T01:14:35.947Z,93.87
2023-01-19T01:15:35.897Z,93.97
2023-01-19T01:16:35.980Z,93.76
2023-01-19T01:17:35.886Z,94.81
2023-01-19T01:18:35.896Z,94.70
2023-01-19T01:19:35.860Z,94.07
2023-01-19T01:20:35.855Z,94.07
2023-01-19T01:21:35.835Z,94.81
2023-01-19T01:22:35.859Z,94.60
2023-01-19T01:23:35.815Z,94.28
2023-01-19T01:24:35.817Z,95.43
2023-01-19T01:25:35.807Z,95.23
2023-01-19T01:26:35.799Z,96.90
2023-01-19T01:27:35.773Z,94.91
2023-01-19T01:28:35.815Z,94.81
2023-01-19T01:29:35.747Z,95.33
2023-01-19T01:30:35.951Z,94.70
2023-01-19T01:31:35.793Z,93.44
2023-01-19T01:32:35.727Z,93.13
2023-01-19T01:33:40.790Z,94.60
2023-01-19T01:34:35.757Z,94.49
2023-01-19T01:35:35.686Z,94.49
2023-01-19T01:36:35.700Z,94.81
2023-01-19T01:37:35.676Z,95.33
2023-01-19T01:38:35.680Z,94.81
2023-01-19T01:39:35.684Z,95.75
2023-01-19T01:40:35.676Z,94.91
2023-01-19T01:41:35.637Z,94.38
2023-01-19T01:42:35.648Z,94.49
2023-01-19T01:43:35.612Z,94.28
2023-01-19T01:44:35.598Z,95.43
2023-01-19T01:45:35.658Z,95.54
2023-01-19T01:46:35.598Z,96.17
2023-01-19T01:47:35.581Z,96.17
2023-01-19T01:48:35.556Z,95.23
2023-01-19T01:49:35.616Z,95.54
2023-01-19T01:50:35.548Z,95.64
2023-01-19T01:51:35.616Z,95.43
2023-01-19T01:52:35.528Z,95.12
2023-01-19T01:53:35.549Z,95.12
2023-01-19T01:54:35.493Z,94.81
2023-01-19T01:55:35.506Z,95.17
2023-01-19T01:56:35.541Z,95.86
2023-01-19T01:57:35.512Z,94.43
2023-01-19T01:58:35.470Z,94.32
2023-01-19T01:59:35.465Z,95.17
2023-01-19T02:00:35.439Z,95.58
2023-01-19T02:01:35.606Z,94.85
2023-01-19T02:02:35.434Z,94.64
2023-01-19T02:03:35.444Z,95.17
2023-01-19T02:04:35.394Z,95.37
2023-01-19T02:05:35.392Z,95.27
2023-01-19T02:06:35.369Z,94.85
2023-01-19T02:07:35.416Z,94.43
2023-01-19T02:08:35.368Z,95.06
2023-01-19T02:09:35.371Z,94.64
2023-01-19T02:10:35.332Z,95.68
2023-01-19T02:11:35.355Z,95.54
2023-01-19T02:12:35.328Z,95.01
2023-01-19T02:13:35.333Z,95.01
2023-01-19T02:14:35.300Z,94.60
2023-01-19T02:15:35.299Z,93.80
2023-01-19T02:16:35.283Z,94.64
2023-01-19T02:17:35.268Z,96.53
2023-01-19T02:18:35.279Z,96.27
2023-01-19T02:19:35.266Z,96.37
2023-01-19T02:20:35.229Z,96.48
2023-01-19T02:21:35.247Z,95.43
2023-01-19T02:22:35.217Z,95.43
2023-01-19T02:23:35.256Z,94.81
2023-01-19T02:24:35.190Z,95.23
2023-01-19T02:25:35.212Z,94.81
2023-01-19T02:26:35.170Z,93.97
2023-01-19T02:27:35.183Z,94.91
2023-01-19T02:28:35.169Z,94.81
2023-01-19T02:29:35.197Z,93.97
2023-01-19T07:00:44.626Z,95.78
2023-01-19T07:01:45.716Z,94.84
2023-01-19T07:02:45.651Z,95.99
2023-01-19T07:03:46.899Z,95.89
2023-01-19T07:04:45.538Z,95.89
2023-01-19T07:05:45.528Z,95.05
2023-01-19T07:06:45.532Z,95.89
2023-01-19T07:07:45.511Z,96.10
2023-01-19T07:08:45.520Z,95.68
2023-01-19T07:09:45.470Z,95.89
2023-01-19T07:11:26.477Z,95.99
2023-01-19T07:11:45.464Z,95.99
2023-01-19T07:12:45.473Z,96.31
2023-01-19T07:15:01.675Z,95.99
2023-01-19T07:16:02.671Z,96.83
2023-01-19T07:17:03.287Z,96.31
2023-01-19T07:18:02.652Z,95.99
2023-01-19T07:19:02.625Z,95.99
2023-01-19T07:20:02.646Z,95.47
2023-01-19T07:21:02.661Z,95.57
2023-01-19T07:22:02.636Z,95.68
2023-01-19T07:23:03.002Z,95.78
2023-01-19T07:24:02.605Z,95.78
2023-01-19T07:25:02.568Z,95.68
2023-01-19T07:26:02.609Z,95.47
2023-01-19T07:27:02.546Z,95.26
2023-01-19T07:28:02.609Z,95.68
2023-01-19T07:29:02.539Z,95.37
2023-01-19T07:30:02.536Z,94.95
2023-01-19T07:31:02.699Z,94.74
2023-01-19T07:32:02.531Z,95.15
2023-01-19T07:33:02.896Z,95.89
2023-01-19T07:34:02.502Z,95.53
2023-01-19T07:35:02.503Z,95.32
2023-01-19T07:36:02.500Z,94.90
2023-01-19T07:37:02.441Z,95.32
2023-01-19T07:38:02.466Z,95.11
2023-01-19T07:39:02.434Z,95.53
2023-01-19T07:40:02.434Z,95.32
2023-01-19T07:41:02.416Z,95.95
2023-01-19T07:42:02.418Z,95.64
2023-01-19T07:43:02.746Z,95.74
2023-01-19T07:44:02.384Z,95.74
2023-01-19T07:45:02.365Z,96.16
2023-01-19T07:46:02.481Z,95.84
2023-01-19T07:47:02.355Z,95.43
2023-01-19T07:48:02.362Z,95.84
2023-01-19T07:49:02.329Z,96.37
2023-01-19T07:50:02.336Z,96.47
2023-01-19T07:51:02.310Z,95.64
2023-01-19T07:52:02.343Z,95.64
2023-01-19T07:53:02.572Z,96.11
2023-01-19T07:54:02.339Z,95.59
2023-01-19T07:55:02.265Z,96.11
2023-01-19T07:56:02.272Z,96.33
2023-01-19T07:57:02.259Z,95.80
2023-01-19T07:58:02.257Z,95.38
2023-01-19T07:59:02.218Z,95.17
2023-01-19T08:00:02.305Z,95.49
2023-01-19T08:01:02.247Z,95.90
2023-01-19T08:02:02.312Z,95.90
2023-01-19T08:03:02.633Z,96.01
2023-01-19T08:04:02.211Z,95.59
2023-01-19T08:05:02.179Z,96.01
2023-01-19T08:06:02.167Z,95.70
2023-01-19T08:07:02.142Z,95.70
2023-01-19T08:08:02.144Z,94.65
2023-01-19T08:09:02.143Z,94.44
2023-01-19T08:10:02.133Z,95.28
2023-01-19T08:11:02.093Z,95.28
2023-01-19T08:12:02.098Z,95.28
2023-01-19T08:13:02.503Z,95.70
2023-01-19T08:14:02.087Z,96.22
2023-01-19T08:15:02.105Z,96.01
2023-01-19T08:16:02.113Z,95.49
2023-01-19T08:17:02.033Z,95.49
2023-01-19T08:18:02.036Z,95.49
2023-01-19T08:19:02.009Z,95.70
2023-01-19T08:20:02.019Z,96.01
2023-01-19T08:21:02.021Z,95.80
2023-01-19T08:22:02.007Z,96.43
2023-01-19T08:23:02.410Z,96.74
2023-01-19T08:24:02.051Z,95.49
2023-01-19T08:25:01.961Z,94.55
2023-01-19T08:26:01.984Z,95.70
2023-01-19T08:27:01.969Z,95.38
2023-01-19T08:28:01.955Z,96.33
2023-01-19T08:29:01.943Z,96.38
2023-01-19T08:30:01.913Z,95.44
2023-01-19T08:31:18.337Z,95.44
2023-01-19T08:32:02.083Z,94.29
2023-01-19T08:33:02.282Z,94.29
2023-01-19T08:34:01.894Z,94.71
2023-01-19T08:35:01.841Z,94.82
2023-01-19T08:36:01.866Z,95.34
2023-01-19T08:37:01.910Z,95.44
2023-01-19T08:38:01.848Z,95.76
2023-01-19T08:39:01.816Z,96.07
2023-01-19T08:40:01.827Z,95.55
2023-01-19T08:41:01.797Z,95.13
2023-01-19T08:42:01.825Z,95.86
2023-01-19T08:43:02.303Z,96.07
2023-01-19T08:44:01.774Z,96.17
2023-01-19T08:45:01.755Z,96.38
2023-01-19T08:46:01.831Z,96.59
2023-01-19T08:47:01.851Z,95.23
2023-01-19T08:48:01.754Z,95.03
2023-01-19T08:49:01.971Z,95.44
2023-01-19T08:50:01.733Z,95.13
2023-01-19T08:51:01.721Z,95.40
2023-01-19T08:52:01.694Z,94.82
2023-01-19T08:53:02.054Z,95.61
2023-01-19T08:54:01.705Z,95.09
2023-01-19T08:55:01.675Z,94.57
2023-01-19T08:56:01.685Z,95.19
2023-01-19T08:57:01.622Z,94.15
2023-01-19T08:58:01.948Z,93.94
2023-01-19T08:59:09.258Z,95.19
2023-01-19T09:00:01.670Z,94.67
2023-01-19T09:01:03.190Z,95.40
2023-01-19T09:02:01.694Z,94.25
2023-01-19T09:03:01.940Z,94.35
2023-01-19T09:04:01.573Z,94.15
2023-01-19T09:05:01.560Z,94.46
2023-01-19T09:06:01.550Z,93.52
2023-01-19T09:07:01.549Z,94.10
2023-01-19T09:08:01.953Z,95.15
2023-01-19T09:09:01.497Z,94.42
2023-01-19T09:10:01.504Z,94.10
2023-01-19T09:11:01.487Z,93.37
2023-01-19T09:12:01.491Z,94.73
2023-01-19T09:13:01.478Z,94.10
2023-01-19T09:14:01.497Z,93.79
2023-01-19T09:15:01.454Z,94.31
2023-01-19T09:16:01.475Z,93.69
2023-01-19T09:17:01.440Z,92.54
2023-01-19T09:18:01.845Z,93.59
2023-01-19T09:19:01.399Z,93.02
2023-01-19T09:20:01.404Z,91.97
2023-01-19T09:21:01.396Z,92.81
2023-01-19T09:22:01.395Z,92.08
2023-01-19T09:23:01.384Z,92.71
2023-01-19T09:24:01.385Z,92.60
2023-01-19T09:25:01.341Z,92.60
2023-01-19T09:26:01.344Z,92.71
2023-01-19T09:27:01.313Z,93.02
2023-01-19T09:28:01.638Z,92.91
2023-01-19T09:29:01.291Z,92.60
2023-01-19T09:30:01.309Z,93.02
2023-01-19T09:31:01.358Z,91.87
2023-01-19T09:32:01.285Z,92.40
2023-01-19T09:33:01.249Z,92.66
2023-01-19T09:34:01.273Z,93.08
2023-01-19T09:35:01.231Z,92.46
2023-01-19T09:36:01.306Z,92.56
2023-01-19T09:37:01.239Z,93.29
2023-01-19T09:38:01.555Z,93.40
2023-01-19T09:39:01.218Z,92.46
2023-01-19T09:40:01.224Z,92.46
2023-01-19T09:41:01.250Z,92.52
2023-01-19T09:42:01.179Z,92.41
2023-01-19T09:43:01.161Z,91.58
2023-01-19T09:44:01.171Z,92.00
2023-01-19T09:45:01.266Z,91.58
2023-01-19T09:46:01.171Z,91.27
2023-01-19T09:47:01.106Z,91.58
2023-01-19T09:48:01.517Z,92.06
2023-01-19T09:49:01.082Z,91.37
2023-01-19T09:50:01.106Z,90.70
2023-01-19T09:51:01.106Z,90.70
2023-01-19T09:52:01.076Z,90.60
2023-01-19T09:53:01.552Z,90.60
2023-01-19T09:54:01.112Z,90.08
2023-01-19T09:55:01.023Z,89.87
2023-01-19T09:56:01.046Z,90.39
2023-01-19T09:57:01.044Z,89.87
2023-01-19T09:58:01.394Z,90.08
2023-01-19T09:59:00.987Z,91.02
2023-01-19T10:00:01.003Z,91.43
2023-01-19T10:01:01.122Z,90.87
2023-01-19T10:02:01.070Z,89.83
2023-01-19T10:03:01.258Z,90.77
2023-01-19T10:04:00.944Z,90.35
2023-01-19T10:05:00.921Z,90.87
2023-01-19T10:06:00.964Z,89.41
2023-01-19T10:07:00.940Z,89.58
2023-01-19T10:08:01.333Z,90.10
2023-01-19T10:09:00.897Z,90.10
2023-01-19T10:10:00.878Z,90.31
2023-01-19T10:11:00.865Z,89.69
2023-01-19T10:12:00.868Z,89.37
2023-01-19T10:13:01.232Z,88.81
2023-01-19T10:14:00.883Z,89.75
2023-01-19T10:15:00.833Z,90.06
2023-01-19T10:16:00.875Z,89.95
2023-01-19T10:17:00.804Z,89.43
2023-01-19T10:18:01.259Z,89.43
2023-01-19T10:19:00.777Z,89.23
2023-01-19T10:20:00.824Z,90.26
2023-01-19T10:21:00.757Z,89.23
2023-01-19T10:22:00.792Z,89.54
2023-01-19T10:23:01.022Z,90.06
2023-01-19T10:24:00.736Z,90.16
2023-01-19T10:25:00.724Z,90.47
2023-01-19T10:26:00.836Z,90.26
2023-01-19T10:27:00.702Z,90.58
2023-01-19T10:28:00.720Z,90.69
2023-01-19T10:29:00.702Z,91.10
2023-01-19T10:30:00.692Z,91.31
2023-01-19T10:31:00.960Z,90.69
2023-01-19T10:32:00.707Z,92.03
2023-01-19T10:33:01.045Z,91.52
2023-01-19T10:34:00.669Z,91.72
2023-01-19T10:35:00.661Z,91.20
2023-01-19T10:36:00.640Z,92.76
2023-01-19T10:37:00.657Z,91.93
2023-01-19T10:38:00.633Z,91.93
2023-01-19T10:39:00.655Z,91.72
2023-01-19T10:40:00.637Z,90.58
2023-01-19T10:41:00.652Z,91.52
2023-01-19T10:42:00.560Z,92.24
2023-01-19T10:43:00.967Z,91.72
2023-01-19T10:44:00.659Z,91.20
2023-01-19T10:45:00.554Z,90.58
2023-01-19T10:46:00.571Z,91.52
2023-01-19T10:47:00.593Z,91.00
2023-01-19T10:48:00.606Z,91.00
2023-01-19T10:49:00.494Z,92.14
2023-01-19T10:50:00.461Z,92.24
2023-01-19T10:51:00.471Z,92.14
2023-01-19T10:52:00.489Z,92.14
2023-01-19T10:53:00.988Z,92.35
2023-01-19T10:54:00.466Z,91.10
2023-01-19T10:55:00.500Z,91.41
2023-01-19T10:56:00.403Z,91.72
2023-01-19T10:57:00.403Z,90.89
2023-01-19T10:58:00.393Z,90.69
2023-01-19T10:59:00.427Z,91.72
2023-01-19T11:00:00.441Z,91.52
2023-01-19T11:01:00.532Z,91.83
2023-01-19T11:02:00.514Z,92.66
2023-01-19T11:03:00.836Z,91.72
2023-01-19T11:04:00.416Z,90.69
2023-01-19T11:05:00.347Z,91.20
2023-01-19T11:06:00.311Z,91.10
2023-01-19T11:07:00.327Z,91.35
2023-01-19T11:08:00.278Z,92.03
2023-01-19T11:09:00.287Z,92.29
2023-01-19T11:10:00.265Z,93.18
2023-01-19T11:11:00.279Z,92.45
2023-01-19T11:12:00.235Z,92.45
2023-01-19T11:13:00.754Z,91.87
2023-01-19T11:14:00.298Z,91.56
2023-01-19T11:15:00.265Z,91.72
2023-01-19T11:16:00.357Z,91.41
2023-01-19T11:17:00.996Z,90.69
2023-01-19T11:18:00.176Z,90.79
2023-01-19T11:19:00.285Z,90.16
2023-01-19T11:20:00.198Z,90.16
2023-01-19T11:21:00.203Z,89.95
2023-01-19T11:22:00.143Z,90.89
2023-01-19T11:23:00.541Z,90.89
2023-01-19T11:24:00.140Z,90.89
2023-01-19T11:25:00.170Z,90.89
2023-01-19T11:26:00.152Z,91.46
2023-01-19T11:27:00.131Z,91.83
2023-01-19T11:28:00.098Z,92.03
2023-01-19T11:29:00.109Z,90.47
2023-01-19T11:30:00.200Z,91.52
2023-01-19T11:31:00.136Z,91.00
2023-01-19T11:32:00.142Z,90.79
2023-01-19T11:33:00.609Z,90.47
2023-01-19T11:34:00.050Z,91.62
2023-01-19T11:35:00.027Z,91.72
2023-01-19T11:35:59.997Z,91.00
2023-01-19T11:37:00.000Z,90.69
2023-01-19T11:37:59.972Z,91.10
2023-01-19T11:38:59.978Z,91.41
2023-01-19T11:40:00.031Z,90.06
2023-01-19T11:40:59.960Z,90.79
2023-01-19T11:41:59.929Z,91.20
2023-01-19T11:43:00.371Z,91.00
2023-01-19T11:43:59.902Z,91.10
2023-01-19T11:44:59.981Z,90.58
2023-01-19T11:45:59.982Z,92.14
2023-01-19T11:46:59.918Z,91.41
2023-01-19T11:48:00.142Z,90.79
2023-01-19T11:48:59.874Z,91.00
2023-01-19T11:49:59.851Z,91.00
2023-01-19T11:50:59.845Z,90.26
2023-01-19T11:51:59.844Z,91.93
2023-01-19T11:52:59.832Z,92.24
2023-01-19T11:53:59.810Z,91.41
2023-01-19T11:54:59.827Z,91.41
2023-01-19T11:55:59.801Z,91.72
2023-01-19T11:56:59.809Z,90.69
2023-01-19T11:58:00.110Z,91.52
2023-01-19T11:58:59.818Z,91.31
2023-01-19T11:59:59.746Z,91.20
2023-01-19T12:00:59.793Z,90.06
2023-01-19T12:01:59.783Z,91.10
2023-01-19T12:02:59.751Z,90.26
2023-01-19T12:03:59.776Z,91.10
2023-01-19T12:04:59.725Z,91.20
2023-01-19T12:05:59.687Z,91.20
2023-01-19T12:06:59.712Z,89.64
2023-01-19T12:08:00.017Z,89.23
2023-01-19T12:08:59.683Z,89.75
2023-01-19T12:09:59.670Z,90.79
2023-01-19T12:10:59.732Z,90.16
2023-01-19T12:11:59.639Z,90.37
2023-01-19T12:12:59.640Z,91.20
2023-01-19T12:13:59.608Z,90.89
2023-01-19T12:14:59.637Z,89.95
2023-01-19T12:15:59.594Z,91.20
2023-01-19T12:16:59.616Z,89.54
2023-01-19T12:18:00.154Z,89.12
2023-01-19T12:18:59.565Z,90.47
2023-01-19T12:19:59.567Z,89.95
2023-01-19T12:21:00.750Z,89.95
2023-01-19T12:21:59.543Z,89.95
2023-01-19T12:22:59.809Z,91.00
2023-01-19T12:23:59.561Z,90.47
2023-01-19T12:24:59.547Z,90.69
2023-01-19T12:25:59.480Z,89.85
2023-01-19T12:26:59.490Z,89.85
2023-01-19T12:27:59.496Z,88.29
2023-01-19T12:28:59.460Z,89.54
2023-01-19T12:29:59.462Z,89.54
2023-01-19T12:30:59.596Z,89.64
2023-01-19T12:31:59.511Z,89.85
2023-01-19T12:32:59.440Z,90.37
2023-01-19T12:33:59.397Z,89.75
2023-01-19T12:34:59.399Z,90.58
2023-01-19T12:35:59.383Z,89.02
2023-01-19T12:36:59.387Z,89.64
2023-01-19T12:37:59.377Z,90.16
2023-01-19T12:38:59.364Z,90.06
2023-01-19T12:39:59.359Z,91.62
2023-01-19T12:40:59.350Z,91.31
2023-01-19T12:41:59.315Z,90.47
2023-01-19T12:42:59.330Z,89.64
2023-01-19T12:43:59.342Z,91.72
2023-01-19T12:44:59.323Z,90.69
2023-01-19T12:45:59.322Z,91.20
2023-01-19T12:46:59.279Z,89.95
2023-01-19T12:47:59.257Z,89.85
2023-01-19T12:49:00.095Z,90.79
2023-01-19T12:49:59.254Z,91.20
2023-01-19T12:50:59.235Z,91.62
2023-01-19T12:52:00.110Z,91.72
2023-01-19T12:52:59.219Z,92.03
2023-01-19T12:53:59.212Z,92.86
2023-01-19T12:54:59.242Z,92.35
2023-01-19T12:55:59.179Z,93.49
2023-01-19T12:56:59.171Z,93.18
2023-01-19T12:57:59.158Z,92.76
2023-01-19T12:58:59.189Z,93.49
2023-01-19T12:59:59.125Z,93.39
2023-01-19T13:01:05.180Z,93.39
2023-01-19T13:01:59.139Z,93.70
2023-01-19T13:02:59.258Z,93.49
2023-01-19T13:03:59.106Z,94.01
2023-01-19T13:04:59.178Z,94.53
2023-01-19T13:05:59.067Z,94.64
2023-01-19T13:06:59.066Z,93.80
2023-01-19T13:07:59.064Z,94.84
2023-01-19T13:08:59.085Z,95.05
2023-01-19T13:09:59.228Z,95.26
2023-01-19T13:10:59.031Z,95.26
2023-01-19T13:12:00.957Z,95.26
2023-01-19T13:12:59.011Z,94.74
2023-01-19T13:13:59.201Z,95.20
2023-01-19T13:14:59.431Z,95.83
2023-01-19T13:15:59.056Z,95.62
2023-01-19T13:16:59.129Z,95.20
2023-01-19T13:17:58.950Z,95.20
2023-01-19T13:18:58.949Z,95.62
2023-01-19T13:19:59.956Z,95.93
2023-01-19T13:20:58.943Z,95.83
2023-01-19T13:21:58.926Z,96.09
2023-01-19T13:22:58.925Z,96.72
2023-01-19T13:23:58.902Z,96.97
2023-01-19T13:24:59.247Z,95.93
2023-01-19T13:25:58.919Z,95.62
2023-01-19T13:26:58.875Z,96.66
2023-01-19T13:27:58.839Z,97.28
2023-01-19T13:28:58.859Z,97.28
2023-01-19T13:29:59.280Z,96.66
2023-01-19T13:30:59.003Z,96.45
2023-01-19T13:31:58.811Z,97.17
2023-01-19T13:32:58.809Z,97.17
2023-01-19T13:33:58.794Z,96.86
2023-01-19T13:34:59.072Z,96.55
2023-01-19T13:35:58.898Z,96.86
2023-01-19T13:36:58.775Z,96.97
2023-01-19T13:37:58.745Z,96.66
2023-01-19T13:38:58.763Z,96.45
2023-01-19T13:39:59.051Z,96.76
2023-01-19T13:40:58.830Z,97.07
2023-01-19T13:41:58.724Z,96.76
2023-01-19T13:42:59.472Z,97.49
2023-01-19T13:43:58.681Z,97.07
2023-01-19T13:44:58.698Z,97.28
2023-01-19T13:45:58.657Z,97.59
2023-01-19T13:46:58.693Z,97.70
2023-01-19T13:47:58.643Z,97.70
2023-01-19T13:48:58.703Z,97.49
2023-01-19T13:49:59.066Z,97.59
2023-01-19T13:50:58.624Z,97.70
2023-01-19T13:51:58.611Z,97.38
2023-01-19T13:52:58.605Z,97.59
2023-01-19T13:53:58.657Z,97.70
2023-01-19T13:55:01.218Z,97.70
2023-01-19T13:55:58.555Z,97.70
2023-01-19T13:56:58.585Z,97.28
2023-01-19T13:57:58.552Z,97.59
2023-01-19T13:58:58.594Z,97.80
2023-01-19T13:59:58.670Z,97.91
2023-01-19T14:00:58.563Z,98.01
2023-01-19T14:01:58.590Z,98.32
2023-01-19T14:02:58.552Z,98.53
2023-01-19T14:03:58.534Z,97.70
2023-01-19T14:04:58.577Z,97.70
2023-01-19T14:05:58.475Z,98.01
2023-01-19T14:06:58.524Z,97.59
2023-01-19T14:07:58.459Z,98.22
2023-01-19T14:08:58.429Z,98.74
2023-01-19T14:09:58.461Z,98.84
2023-01-19T14:10:58.482Z,98.84
2023-01-19T14:11:58.402Z,98.94
2023-01-19T14:12:59.660Z,99.15
2023-01-19T14:13:58.426Z,99.26
2023-01-19T14:14:58.383Z,99.15
2023-01-19T14:15:58.498Z,99.67
2023-01-19T14:16:58.385Z,99.26
2023-01-19T14:17:58.337Z,99.36
2023-01-19T14:18:58.341Z,99.36
2023-01-19T14:19:58.427Z,99.26
2023-01-19T14:20:58.332Z,98.94
2023-01-19T14:21:58.309Z,99.26
2023-01-19T14:22:58.299Z,99.36
2023-01-19T14:23:58.271Z,98.63
2023-01-19T14:24:58.280Z,99.05
2023-01-19T14:25:58.254Z,99.46
2023-01-19T14:26:58.288Z,99.26
2023-01-19T14:27:58.224Z,99.36
2023-01-19T14:28:58.267Z,99.30
2023-01-19T14:29:58.206Z,98.99
2023-01-19T14:30:58.355Z,98.88
2023-01-19T14:31:58.220Z,99.20
2023-01-19T14:32:58.216Z,99.41
2023-01-19T14:33:58.169Z,99.51
2023-01-19T14:34:58.171Z,99.30
2023-01-19T14:35:58.145Z,99.62
2023-01-19T14:36:58.174Z,99.41
2023-01-19T14:37:58.147Z,99.41
2023-01-19T14:38:58.154Z,99.41
2023-01-19T14:39:58.153Z,99.82
2023-01-19T14:40:58.107Z,99.72
2023-01-19T14:41:58.104Z,99.93
2023-01-19T14:42:58.123Z,99.93
2023-01-19T14:43:58.065Z,99.82
2023-01-19T14:44:58.065Z,99.72
2023-01-19T14:45:58.071Z,99.82
2023-01-19T14:46:58.059Z,99.93
2023-01-19T14:47:58.074Z,99.99
2023-01-19T14:48:58.124Z,99.93
2023-01-19T14:49:58.024Z,99.99
2023-01-19T14:51:03.249Z,99.99
2023-01-19T14:51:58.005Z,99.99
2023-01-19T14:52:58.030Z,99.99
2023-01-19T14:53:58.890Z,99.99
2023-01-19T14:54:57.959Z,99.99
2023-01-19T14:55:57.946Z,99.99
2023-01-19T14:56:58.006Z,99.99
2023-01-19T14:57:57.928Z,99.99
2023-01-19T14:58:57.946Z,99.99
2023-01-19T14:59:57.918Z,99.99
2023-01-19T15:00:57.981Z,99.99
2023-01-19T15:01:58.000Z,99.99
2023-01-19T15:02:57.922Z,99.99
2023-01-19T15:03:57.894Z,99.99
2023-01-19T15:04:57.908Z,99.99
2023-01-19T15:05:57.849Z,99.99
2023-01-19T15:06:57.857Z,99.99
2023-01-19T15:07:57.862Z,99.99
2023-01-19T15:08:57.851Z,99.99
2023-01-19T15:09:57.811Z,99.99
2023-01-19T15:10:57.803Z,99.99
2023-01-19T15:11:57.817Z,99.99
2023-01-19T15:12:57.801Z,99.99
2023-01-19T15:13:57.766Z,99.99
2023-01-19T15:14:57.817Z,99.99
2023-01-19T15:15:57.782Z,99.99
2023-01-19T15:16:57.815Z,99.99
2023-01-19T15:17:57.735Z,99.99
2023-01-19T15:18:57.750Z,99.99
2023-01-19T15:19:57.709Z,99.99
2023-01-19T15:20:57.720Z,99.99
2023-01-19T15:21:57.737Z,99.99
2023-01-19T15:22:57.711Z,99.99
2023-01-19T15:23:57.699Z,99.99
2023-01-19T15:24:57.766Z,99.99
2023-01-19T15:25:57.657Z,99.99
2023-01-19T15:26:57.656Z,99.99
2023-01-19T15:27:57.647Z,99.99
2023-01-19T15:28:57.609Z,99.99
2023-01-19T15:29:57.641Z,99.99
2023-01-19T15:30:57.590Z,99.99
2023-01-19T15:31:57.634Z,99.99
2023-01-19T15:32:57.567Z,99.99
2023-01-19T15:33:57.580Z,99.99
2023-01-19T15:34:57.557Z,99.99
2023-01-19T15:35:57.557Z,99.99
2023-01-19T15:36:57.537Z,99.99
2023-01-19T15:37:57.600Z,99.99
2023-01-19T15:38:57.556Z,99.99
2023-01-19T15:39:57.520Z,99.99
2023-01-19T15:40:57.527Z,99.99
2023-01-19T15:41:57.503Z,99.99
2023-01-19T15:42:57.477Z,99.99
2023-01-19T15:43:57.480Z,99.99
2023-01-19T15:44:57.451Z,99.99
2023-01-19T15:45:57.487Z,99.99
2023-01-19T15:46:57.453Z,99.99
2023-01-19T15:47:57.460Z,99.99
2023-01-19T15:48:57.412Z,99.99
2023-01-19T15:49:57.431Z,99.99
2023-01-19T15:50:57.390Z,99.99
2023-01-19T15:51:57.564Z,99.99
2023-01-19T15:52:57.371Z,99.99
2023-01-19T15:53:57.381Z,99.99
2023-01-19T15:54:57.377Z,99.99
2023-01-19T15:55:57.355Z,99.99
2023-01-19T15:56:57.325Z,99.99
2023-01-19T15:57:57.331Z,99.99
2023-01-19T15:58:57.295Z,99.99
2023-01-19T15:59:57.319Z,99.99
2023-01-19T16:00:57.582Z,99.99
2023-01-19T16:01:57.536Z,99.99
2023-01-19T16:02:57.295Z,99.99
2023-01-19T16:03:57.263Z,99.99
2023-01-19T16:04:57.257Z,99.99
2023-01-19T16:05:57.259Z,99.99
2023-01-19T16:06:57.247Z,99.99
2023-01-19T16:07:57.226Z,99.99
2023-01-19T16:08:57.201Z,99.99
2023-01-19T16:09:57.202Z,99.99
2023-01-19T16:10:57.188Z,99.99
2023-01-19T16:11:57.207Z,99.99
2023-01-19T16:12:57.144Z,99.99
2023-01-19T16:13:57.167Z,99.99
2023-01-19T16:14:57.149Z,99.99
2023-01-19T16:15:57.128Z,99.99
2023-01-19T16:16:57.123Z,99.99
2023-01-19T16:17:57.178Z,99.99
2023-01-19T16:18:57.126Z,99.99
2023-01-19T16:19:57.153Z,99.99
2023-01-19T16:20:57.084Z,99.99
2023-01-19T16:21:57.078Z,99.99
2023-01-19T16:23:09.627Z,99.99
2023-01-19T16:23:57.058Z,99.99
2023-01-19T16:24:57.104Z,99.99
2023-01-19T16:25:57.142Z,99.99
2023-01-19T16:26:57.054Z,99.99
2023-01-19T16:27:57.083Z,99.99
2023-01-19T16:28:57.037Z,99.99
2023-01-19T16:29:57.056Z,99.99
2023-01-19T16:30:57.027Z,99.99
2023-01-19T16:31:57.050Z,99.99
2023-01-19T16:32:57.039Z,99.99
2023-01-19T16:33:56.999Z,99.99
2023-01-19T16:34:57.012Z,99.99
2023-01-19T16:35:56.983Z,99.99
2023-01-19T16:36:56.961Z,99.99
2023-01-19T16:37:57.010Z,99.99
2023-01-19T16:38:56.945Z,99.99
2023-01-19T16:39:56.956Z,99.99
2023-01-19T16:40:56.939Z,99.99
2023-01-19T16:41:56.926Z,99.99
2023-01-19T16:42:56.906Z,99.99
2023-01-19T16:43:56.900Z,99.99
2023-01-19T16:44:56.916Z,99.99
2023-01-19T16:45:56.960Z,99.99
2023-01-19T16:46:56.858Z,99.99
2023-01-19T16:47:56.859Z,99.99
2023-01-19T16:48:56.840Z,99.99
2023-01-19T16:49:56.839Z,99.99
2023-01-19T16:50:56.842Z,99.99
2023-01-19T16:51:56.816Z,99.99
2023-01-19T16:52:56.821Z,99.99
2023-01-19T16:53:56.803Z,99.99
2023-01-19T16:54:56.792Z,99.99
2023-01-19T16:55:56.771Z,99.99
2023-01-19T16:56:56.755Z,99.99
2023-01-19T16:57:56.835Z,99.99
2023-01-19T16:58:56.727Z,99.99
2023-01-19T16:59:56.754Z,99.99
2023-01-19T17:00:56.811Z,99.99
2023-01-19T17:01:56.779Z,99.99
2023-01-19T17:02:56.745Z,99.99
2023-01-19T17:03:56.734Z,99.99
2023-01-19T17:04:56.686Z,99.99
2023-01-19T17:05:56.690Z,99.99
2023-01-19T17:06:56.744Z,99.99
2023-01-19T17:07:56.699Z,99.99
2023-01-19T17:08:56.627Z,99.99
2023-01-19T17:09:56.629Z,99.99
2023-01-19T17:10:56.630Z,99.99
2023-01-19T17:11:56.654Z,99.99
2023-01-19T17:12:56.611Z,99.99
2023-01-19T17:13:56.648Z,99.99
2023-01-19T17:14:56.590Z,99.99
2023-01-19T17:15:56.719Z,99.99
2023-01-19T17:16:56.641Z,99.99
2023-01-19T17:17:56.570Z,99.99
2023-01-19T17:18:56.533Z,99.99
2023-01-19T17:19:56.532Z,99.99
2023-01-19T17:20:56.510Z,99.99
2023-01-19T17:21:56.517Z,99.99
2023-01-19T17:22:56.480Z,99.99
2023-01-19T17:23:56.519Z,99.99